Time;durP1;ratioP1;P1;durP2;ratioP2;P2;SDS_P1;SDS_P2;PMS_P1;PMS_P2;Temp;Humidity;BMP_temperature;BMP_pressure;BME280_temperature;BME280_humidity;BME280_pressure;Samples;Min_cycle;Max_cycle;Signal;HPM_P1;HPM_P2
2023/02/26 00:01:37;;;;;;;2.97;1.93;;;4.10;99.90;;;;;;5071233;28;20937;-77
2023/02/26 00:04:05;;;;;;;2.63;1.93;;;4.20;99.90;;;;;;5071861;28;20436;-77
2023/02/26 00:06:33;;;;;;;12.00;4.07;;;4.10;99.90;;;;;;5070204;28;20591;-78
2023/02/26 00:08:59;;;;;;;4.63;2.30;;;4.10;99.90;;;;;;5071423;28;20420;-77
2023/02/26 00:11:25;;;;;;;3.03;2.00;;;4.10;99.90;;;;;;5071500;28;20563;-77
2023/02/26 00:13:51;;;;;;;2.07;1.60;;;4.10;99.90;;;;;;5068545;28;20801;-80
2023/02/26 00:16:27;;;;;;;4.23;1.77;;;4.10;99.90;;;;;;5071842;28;20521;-80
2023/02/26 00:18:53;;;;;;;4.37;2.10;;;4.10;99.90;;;;;;5071928;28;20410;-80
2023/02/26 00:21:20;;;;;;;8.63;3.20;;;4.00;99.90;;;;;;5071741;28;20429;-77
2023/02/26 00:23:46;;;;;;;3.40;1.93;;;4.00;99.90;;;;;;5071575;28;20848;-77
2023/02/26 00:26:11;;;;;;;2.93;1.63;;;4.00;99.90;;;;;;5071923;28;20523;-77
2023/02/26 00:28:37;;;;;;;5.67;2.50;;;4.00;99.90;;;;;;5074880;28;20267;-77
2023/02/26 00:31:04;;;;;;;6.10;2.43;;;4.00;99.90;;;;;;5075006;28;20240;-76
2023/02/26 00:33:29;;;;;;;5.63;2.10;;;4.00;99.90;;;;;;5057882;28;21011;-77
2023/02/26 00:36:02;;;;;;;5.33;3.87;;;3.90;99.90;;;;;;5075616;28;20507;-77
2023/02/26 00:38:31;;;;;;;3.87;2.47;;;3.90;99.90;;;;;;5075090;28;20299;-77
2023/02/26 00:40:57;;;;;;;10.53;2.20;;;3.90;99.90;;;;;;5075666;28;20425;-77
2023/02/26 00:43:25;;;;;;;4.03;2.80;;;3.90;99.90;;;;;;5075612;28;20901;-77
2023/02/26 00:46:19;;;;;;;8.73;2.03;;;3.80;99.90;;;;;;5075712;28;20215;-75
2023/02/26 00:49:12;;;;;;;4.90;2.20;;;3.80;99.90;;;;;;5066276;28;20474;-76
2023/02/26 00:51:58;;;;;;;6.00;2.83;;;3.80;99.90;;;;;;5073273;28;20804;-80
2023/02/26 00:54:26;;;;;;;6.60;2.00;;;3.80;99.90;;;;;;5076793;28;20473;-80
2023/02/26 00:56:53;;;;;;;4.67;2.23;;;3.70;99.90;;;;;;5075769;28;20444;-80
2023/02/26 00:59:19;;;;;;;4.10;2.40;;;3.80;99.90;;;;;;5073922;28;20430;-80
2023/02/26 01:01:46;;;;;;;4.23;2.17;;;3.80;99.90;;;;;;5075362;28;20467;-80
2023/02/26 01:04:13;;;;;;;4.37;2.20;;;3.70;99.90;;;;;;5075704;28;20526;-80
2023/02/26 01:06:46;;;;;;;4.60;1.87;;;3.70;99.90;;;;;;5075213;28;20952;-80
2023/02/26 01:09:26;;;;;;;4.90;2.00;;;3.70;99.90;;;;;;5075807;28;20436;-81
2023/02/26 01:11:54;;;;;;;3.33;2.03;;;3.70;99.90;;;;;;5075266;28;20504;-81
2023/02/26 01:14:20;;;;;;;11.63;2.37;;;3.70;99.90;;;;;;5071982;28;20431;-79
2023/02/26 01:17:19;;;;;;;8.67;2.53;;;3.60;99.90;;;;;;5075245;28;20431;-78
2023/02/26 01:20:01;;;;;;;7.17;2.87;;;3.70;99.90;;;;;;5075977;28;20426;-81
2023/02/26 01:22:49;;;;;;;4.07;2.07;;;3.70;99.90;;;;;;5057819;28;20436;-81
2023/02/26 01:25:27;;;;;;;3.57;2.03;;;3.70;99.90;;;;;;5071533;28;20418;-76
2023/02/26 01:27:55;;;;;;;6.80;2.40;;;3.70;99.90;;;;;;5073283;28;20435;-77
2023/02/26 01:30:22;;;;;;;4.23;1.93;;;3.80;99.90;;;;;;5074882;28;20462;-76
2023/02/26 01:32:57;;;;;;;2.87;2.00;;;3.70;99.90;;;;;;5074448;28;21068;-76
2023/02/26 01:35:57;;;;;;;3.40;1.50;;;3.70;99.90;;;;;;5074917;28;20954;-76
2023/02/26 01:38:30;;;;;;;9.53;2.60;;;3.70;99.90;;;;;;5074736;28;20439;-76
2023/02/26 01:41:19;;;;;;;3.60;2.10;;;3.80;99.90;;;;;;5074544;28;20430;-76
2023/02/26 01:44:13;;;;;;;5.27;2.23;;;3.80;99.90;;;;;;5074327;28;21049;-76
2023/02/26 01:46:56;;;;;;;4.33;2.50;;;3.80;99.90;;;;;;5073671;28;20435;-80
2023/02/26 01:49:22;;;;;;;7.00;2.30;;;3.90;99.90;;;;;;5073668;28;20439;-80
2023/02/26 01:51:50;;;;;;;3.53;2.03;;;3.80;99.90;;;;;;5074518;28;20476;-80
2023/02/26 01:54:23;;;;;;;5.60;2.27;;;3.80;99.90;;;;;;5072695;28;20426;-80
2023/02/26 01:56:58;;;;;;;6.33;2.70;;;3.80;99.90;;;;;;5074739;28;20779;-80
2023/02/26 01:59:24;;;;;;;3.30;2.17;;;3.80;99.90;;;;;;5074072;28;20430;-80
2023/02/26 02:01:52;;;;;;;5.97;2.43;;;3.80;99.90;;;;;;5056401;28;20444;-80
2023/02/26 02:04:19;;;;;;;2.70;1.37;;;3.70;99.90;;;;;;5074338;28;20648;-76
2023/02/26 02:06:45;;;;;;;12.40;1.67;;;3.70;99.90;;;;;;5074263;28;20462;-76
2023/02/26 02:09:14;;;;;;;5.27;2.20;;;3.70;99.90;;;;;;5074355;28;20430;-76
2023/02/26 02:11:47;;;;;;;4.23;2.40;;;3.70;99.90;;;;;;5074198;28;20469;-76
2023/02/26 02:14:21;;;;;;;3.53;2.23;;;3.60;99.90;;;;;;5074144;28;20443;-76
2023/02/26 02:17:01;;;;;;;3.83;2.50;;;3.60;99.90;;;;;;5071385;28;21044;-76
2023/02/26 02:19:37;;;;;;;4.50;1.87;;;3.60;99.90;;;;;;5074081;28;20443;-76
2023/02/26 02:22:09;;;;;;;4.60;1.87;;;3.60;99.90;;;;;;5074133;28;20430;-80
2023/02/26 02:24:49;;;;;;;3.30;1.77;;;3.60;99.90;;;;;;5073150;28;20424;-80
2023/02/26 02:27:23;;;;;;;3.17;1.97;;;3.60;99.90;;;;;;5072383;28;20436;-74
2023/02/26 02:30:10;;;;;;;3.43;2.03;;;3.60;99.90;;;;;;5073746;28;20911;-82
2023/02/26 02:32:43;;;;;;;3.37;2.50;;;3.60;99.90;;;;;;5073594;28;20492;-83
2023/02/26 02:35:29;;;;;;;3.50;1.50;;;3.60;99.90;;;;;;5074077;28;20778;-81
2023/02/26 02:38:07;;;;;;;3.50;1.80;;;3.50;99.90;;;;;;5072965;28;20438;-81
2023/02/26 02:40:41;;;;;;;2.60;1.90;;;3.50;99.90;;;;;;5071066;28;20430;-80
2023/02/26 02:43:12;;;;;;;6.90;1.90;;;3.50;99.90;;;;;;5074041;28;20434;-80
2023/02/26 02:46:11;;;;;;;5.13;1.73;;;3.60;99.90;;;;;;5073640;28;20412;-80
2023/02/26 02:48:44;;;;;;;3.93;1.60;;;3.60;99.90;;;;;;5056506;28;20565;-79
2023/02/26 02:51:16;;;;;;;3.37;1.90;;;3.60;99.90;;;;;;5073584;28;20505;-80
2023/02/26 02:53:44;;;;;;;6.50;1.77;;;3.60;99.90;;;;;;5073363;28;20504;-80
2023/02/26 02:56:18;;;;;;;7.43;2.20;;;3.70;99.90;;;;;;5076215;28;20770;-79
2023/02/26 02:58:51;;;;;;;6.40;2.00;;;3.70;99.90;;;;;;5081451;28;20466;-78
2023/02/26 03:01:20;;;;;;;2.60;1.70;;;3.70;99.90;;;;;;5078121;28;20481;-79
2023/02/26 03:04:21;;;;;;;5.90;1.80;;;3.70;99.90;;;;;;5070326;28;20795;-79
2023/02/26 03:06:48;;;;;;;7.20;1.67;;;3.70;99.90;;;;;;4987422;28;20435;-78
2023/02/26 03:09:14;;;;;;;4.00;1.40;;;3.60;99.90;;;;;;5035058;28;20871;-78
2023/02/26 03:11:40;;;;;;;6.90;2.17;;;3.70;99.90;;;;;;5077796;28;20467;-80
2023/02/26 03:14:09;;;;;;;8.77;2.30;;;3.60;99.90;;;;;;5072989;28;20522;-79
2023/02/26 03:16:46;;;;;;;2.63;1.30;;;3.60;99.90;;;;;;5070790;28;20181;-80
2023/02/26 03:19:19;;;;;;;2.97;1.67;;;3.60;99.90;;;;;;5073063;28;20917;-80
2023/02/26 03:22:07;;;;;;;6.40;2.33;;;3.60;99.90;;;;;;5072598;28;20875;-80
2023/02/26 03:25:05;;;;;;;3.10;2.20;;;3.60;99.90;;;;;;5072870;28;20424;-80
2023/02/26 03:28:13;;;;;;;5.43;1.93;;;3.60;99.90;;;;;;5045409;28;20439;-80
2023/02/26 03:30:54;;;;;;;5.20;2.13;;;3.50;99.90;;;;;;5072094;28;20501;-72
2023/02/26 03:33:36;;;;;;;5.50;2.37;;;3.50;99.90;;;;;;5070583;28;20465;-74
2023/02/26 03:36:24;;;;;;;7.43;2.47;;;3.50;99.90;;;;;;5072050;28;20511;-75
2023/02/26 03:38:57;;;;;;;5.20;1.43;;;3.50;99.90;;;;;;5068356;28;20436;-75
2023/02/26 05:31:48;;;;;;;3.73;1.70;;;3.00;99.90;;;;;;5451291;23;21150;-81
2023/02/26 05:34:14;;;;;;;3.17;1.80;;;3.00;99.90;;;;;;5047365;28;20444;-77
2023/02/26 05:36:39;;;;;;;4.30;1.90;;;3.00;99.90;;;;;;5031128;28;20551;-77
2023/02/26 05:39:05;;;;;;;9.03;1.87;;;3.00;99.90;;;;;;5050407;28;20424;-78
2023/02/26 05:41:30;;;;;;;2.97;1.90;;;2.90;99.90;;;;;;5034443;28;20196;-78
2023/02/26 05:43:56;;;;;;;3.43;1.73;;;2.90;99.90;;;;;;5054104;28;20214;-78
2023/02/26 05:46:21;;;;;;;3.10;2.13;;;2.90;99.90;;;;;;5053735;28;20185;-77
2023/02/26 05:48:47;;;;;;;5.23;1.77;;;2.90;99.90;;;;;;5036311;28;20532;-78
2023/02/26 05:51:12;;;;;;;4.80;2.90;;;2.90;99.90;;;;;;5049664;28;20321;-77
2023/02/26 05:53:38;;;;;;;4.03;1.83;;;2.90;99.90;;;;;;5047737;28;20187;-77
2023/02/26 05:56:04;;;;;;;3.63;1.90;;;2.90;99.90;;;;;;5046043;28;20191;-78
2023/02/26 05:58:32;;;;;;;4.60;1.93;;;2.90;99.90;;;;;;5044489;28;20179;-78
2023/02/26 06:00:58;;;;;;;4.60;1.73;;;2.90;99.90;;;;;;5042294;28;20431;-77
2023/02/26 06:03:24;;;;;;;3.27;2.00;;;2.80;99.90;;;;;;5041376;28;20476;-79
2023/02/26 06:05:50;;;;;;;3.40;1.80;;;2.80;99.90;;;;;;5039120;28;20468;-79
2023/02/26 06:08:16;;;;;;;1.60;1.27;;;2.80;99.90;;;;;;5040419;28;20187;-76
2023/02/26 06:10:42;;;;;;;3.23;1.77;;;2.90;99.90;;;;;;5035572;28;20437;-76
2023/02/26 06:13:07;;;;;;;3.20;1.80;;;2.80;99.90;;;;;;5053995;28;20194;-82
2023/02/26 06:15:33;;;;;;;6.37;2.03;;;2.80;99.90;;;;;;5052235;28;20490;-79
2023/02/26 06:17:58;;;;;;;13.83;2.40;;;2.80;99.90;;;;;;5048758;28;20190;-77
2023/02/26 06:20:24;;;;;;;3.40;2.30;;;2.80;99.90;;;;;;5033798;28;20600;-76
2023/02/26 06:22:49;;;;;;;4.93;1.80;;;2.80;99.90;;;;;;5045086;28;20175;-78
2023/02/26 06:25:15;;;;;;;5.57;2.53;;;2.80;99.90;;;;;;5040589;28;20652;-77
2023/02/26 06:27:41;;;;;;;5.23;2.13;;;2.70;99.90;;;;;;5041406;28;20293;-76
2023/02/26 06:30:07;;;;;;;4.27;1.90;;;2.70;99.90;;;;;;5039893;28;20470;-78
2023/02/26 06:32:32;;;;;;;4.10;1.73;;;2.80;99.90;;;;;;5037648;28;20243;-81
2023/02/26 06:34:58;;;;;;;4.40;1.30;;;2.80;99.90;;;;;;5042173;28;20433;-74
2023/02/26 06:37:24;;;;;;;2.33;1.50;;;2.70;99.90;;;;;;5050184;28;20183;-79
2023/02/26 06:39:49;;;;;;;5.20;1.63;;;2.70;99.90;;;;;;5036653;28;20182;-74
2023/02/26 06:42:15;;;;;;;2.90;2.17;;;2.70;99.90;;;;;;5035032;28;20195;-75
2023/02/26 06:44:40;;;;;;;1.47;1.37;;;2.60;99.90;;;;;;5036861;28;20701;-75
2023/02/26 06:47:06;;;;;;;2.60;1.80;;;2.60;99.90;;;;;;5038416;28;20196;-70
2023/02/26 06:49:32;;;;;;;4.40;2.03;;;2.60;99.90;;;;;;5040112;28;20614;-70
2023/02/26 06:51:58;;;;;;;2.60;1.30;;;2.60;99.90;;;;;;5041532;28;20975;-70
2023/02/26 06:54:23;;;;;;;3.60;1.87;;;2.60;99.90;;;;;;5043514;28;20179;-70
2023/02/26 06:56:49;;;;;;;6.00;2.50;;;2.60;99.90;;;;;;5044950;28;20210;-70
2023/02/26 06:59:14;;;;;;;3.13;1.53;;;2.60;99.90;;;;;;5046706;28;20183;-70
2023/02/26 07:01:40;;;;;;;2.37;1.57;;;2.70;99.90;;;;;;5048705;28;20189;-73
2023/02/26 07:04:06;;;;;;;7.60;2.20;;;2.70;99.90;;;;;;5050467;28;20185;-70
2023/02/26 07:06:31;;;;;;;2.73;1.90;;;2.70;99.90;;;;;;5051839;28;20444;-73
2023/02/26 07:08:57;;;;;;;3.73;2.03;;;2.70;99.90;;;;;;5039820;28;20196;-70
2023/02/26 07:11:23;;;;;;;19.83;3.03;;;2.70;99.90;;;;;;5035464;28;20682;-72
2023/02/26 07:13:50;;;;;;;3.33;1.93;;;2.80;99.90;;;;;;5037195;28;20176;-72
2023/02/26 07:16:15;;;;;;;3.27;1.60;;;3.10;99.90;;;;;;5038788;28;20436;-69
2023/02/26 07:18:41;;;;;;;2.33;2.13;;;3.20;99.90;;;;;;5040555;28;20784;-73
2023/02/26 07:21:06;;;;;;;6.83;1.60;;;3.20;99.90;;;;;;5049516;28;20180;-71
2023/02/26 07:23:32;;;;;;;6.03;2.10;;;3.30;99.90;;;;;;5049444;28;20186;-72
2023/02/26 07:25:58;;;;;;;6.80;2.03;;;3.50;99.90;;;;;;5049415;28;20173;-71
2023/02/26 07:28:24;;;;;;;5.80;1.57;;;3.50;99.90;;;;;;5048826;28;20213;-71
2023/02/26 07:30:49;;;;;;;1.97;1.17;;;3.50;99.90;;;;;;5046690;28;20221;-71
2023/02/26 07:33:15;;;;;;;1.87;1.40;;;3.60;99.90;;;;;;5044977;28;20436;-71
2023/02/26 07:35:41;;;;;;;2.90;1.70;;;3.60;99.90;;;;;;5045599;28;20176;-73
2023/02/26 07:38:06;;;;;;;3.60;1.80;;;3.60;99.90;;;;;;5048904;28;20214;-69
2023/02/26 07:40:32;;;;;;;7.60;1.90;;;3.60;99.90;;;;;;5048500;28;20683;-70
2023/02/26 07:42:58;;;;;;;4.83;2.13;;;3.60;99.90;;;;;;5048982;28;20230;-69
2023/02/26 07:45:24;;;;;;;2.67;1.67;;;3.60;99.90;;;;;;5049995;28;20193;-70
2023/02/26 07:47:50;;;;;;;2.03;1.70;;;3.60;99.90;;;;;;5048935;28;20166;-70
2023/02/26 07:50:16;;;;;;;4.07;2.00;;;3.70;99.90;;;;;;5032460;28;20623;-69
2023/02/26 07:52:42;;;;;;;7.67;2.20;;;3.80;99.90;;;;;;5048626;28;20831;-70
2023/02/26 07:55:09;;;;;;;3.13;2.20;;;4.10;99.90;;;;;;5049637;28;20447;-70
2023/02/26 07:57:34;;;;;;;4.37;1.40;;;4.30;99.90;;;;;;5044665;28;20186;-70
2023/02/26 08:00:00;;;;;;;4.87;1.60;;;4.60;99.90;;;;;;5047026;28;20426;-69
2023/02/26 08:02:26;;;;;;;3.27;1.70;;;4.80;99.90;;;;;;5044094;28;20172;-72
2023/02/26 08:04:51;;;;;;;5.37;2.10;;;5.00;99.90;;;;;;5047326;28;20631;-73
2023/02/26 08:07:17;;;;;;;10.27;2.47;;;5.00;99.90;;;;;;5047445;28;20186;-72
2023/02/26 08:09:44;;;;;;;4.57;2.03;;;5.10;99.90;;;;;;5048158;28;20237;-72
2023/02/26 08:12:09;;;;;;;4.73;1.70;;;5.20;99.90;;;;;;5043538;28;20473;-71
2023/02/26 08:14:35;;;;;;;3.50;2.00;;;5.30;99.90;;;;;;5041582;28;20468;-69
2023/02/26 08:17:00;;;;;;;3.60;2.47;;;5.40;99.90;;;;;;5049061;28;20174;-69
2023/02/26 08:19:26;;;;;;;4.00;1.83;;;5.50;99.90;;;;;;5049722;28;20194;-69
2023/02/26 08:21:54;;;;;;;2.50;2.10;;;5.50;99.90;;;;;;5047343;28;20656;-70
2023/02/26 08:24:19;;;;;;;5.57;2.37;;;5.50;99.90;;;;;;5043740;28;20182;-69
2023/02/26 08:26:45;;;;;;;7.70;2.03;;;5.50;99.90;;;;;;5032864;28;20913;-71
2023/02/26 08:29:11;;;;;;;4.80;2.13;;;5.60;99.90;;;;;;5032233;28;20186;-68
2023/02/26 08:31:37;;;;;;;2.40;1.67;;;5.60;99.90;;;;;;5032753;28;20236;-68
2023/02/26 08:34:02;;;;;;;3.53;1.70;;;5.80;99.90;;;;;;5035970;28;20429;-68
2023/02/26 08:36:29;;;;;;;6.20;1.73;;;5.80;99.90;;;;;;5037748;28;20255;-68
2023/02/26 08:38:54;;;;;;;3.40;1.90;;;5.90;99.90;;;;;;5039638;28;20180;-68
2023/02/26 08:41:21;;;;;;;5.00;3.00;;;6.10;99.90;;;;;;5041570;28;20426;-68
2023/02/26 08:43:46;;;;;;;6.70;2.20;;;6.20;99.90;;;;;;5043021;28;20186;-69
2023/02/26 08:46:12;;;;;;;6.27;2.00;;;6.40;99.90;;;;;;5044967;28;20839;-69
2023/02/26 08:48:37;;;;;;;6.00;2.13;;;6.50;99.90;;;;;;5048844;28;20265;-68
2023/02/26 08:51:03;;;;;;;5.87;2.00;;;6.50;99.20;;;;;;5051570;28;20684;-68
2023/02/26 08:53:28;;;;;;;3.17;1.50;;;6.60;98.60;;;;;;5053759;28;20235;-69
2023/02/26 08:55:54;;;;;;;3.60;2.07;;;6.70;98.60;;;;;;5054962;28;20203;-69
2023/02/26 08:58:20;;;;;;;7.80;2.73;;;6.80;97.60;;;;;;5053710;28;20571;-69
2023/02/26 09:00:45;;;;;;;5.23;1.90;;;6.80;96.50;;;;;;5051989;28;20187;-69
2023/02/26 09:03:11;;;;;;;5.27;1.73;;;6.70;96.50;;;;;;5050082;28;20183;-68
2023/02/26 09:05:37;;;;;;;3.50;1.50;;;6.80;95.80;;;;;;5048395;28;20436;-69
2023/02/26 09:08:03;;;;;;;3.03;1.43;;;6.80;95.00;;;;;;5046648;28;20502;-68
2023/02/26 09:10:29;;;;;;;2.47;1.80;;;6.90;95.40;;;;;;5027130;28;20439;-68
2023/02/26 09:12:55;;;;;;;2.33;1.80;;;6.90;95.40;;;;;;5042815;28;20482;-68
2023/02/26 09:15:20;;;;;;;2.10;1.30;;;6.90;95.00;;;;;;5041383;28;20468;-68
2023/02/26 09:17:46;;;;;;;2.47;1.50;;;6.90;95.10;;;;;;5039430;28;20194;-69
2023/02/26 09:20:13;;;;;;;2.53;2.10;;;6.80;94.70;;;;;;5037692;28;20578;-68
2023/02/26 09:22:38;;;;;;;7.30;1.80;;;7.00;94.90;;;;;;5035578;28;20518;-69
2023/02/26 09:25:05;;;;;;;4.50;1.80;;;7.00;93.70;;;;;;5036325;28;20525;-68
2023/02/26 09:27:30;;;;;;;6.20;1.90;;;7.10;94.20;;;;;;5038287;28;20176;-68
2023/02/26 09:29:56;;;;;;;3.47;2.37;;;6.80;93.70;;;;;;5039685;28;20441;-68
2023/02/26 09:32:22;;;;;;;3.93;1.80;;;6.90;94.00;;;;;;5041171;28;20333;-68
2023/02/26 09:34:47;;;;;;;2.33;1.57;;;6.70;93.20;;;;;;5043225;28;20175;-68
2023/02/26 09:37:13;;;;;;;4.50;1.50;;;6.80;94.80;;;;;;5044732;28;20437;-68
2023/02/26 09:39:38;;;;;;;1.90;1.30;;;6.90;94.50;;;;;;5042659;28;20209;-68
2023/02/26 09:42:18;;;;;;;2.40;1.50;;;7.00;94.00;;;;;;5040855;28;20176;-69
2023/02/26 09:44:44;;;;;;;6.63;1.40;;;7.10;94.40;;;;;;5039098;28;20179;-68
2023/02/26 09:47:15;;;;;;;2.70;1.43;;;7.20;93.00;;;;;;5037372;28;20441;-68
2023/02/26 09:50:06;;;;;;;2.63;1.20;;;7.00;91.50;;;;;;5035166;28;20167;-68
2023/02/26 09:53:01;;;;;;;6.33;1.50;;;7.10;92.40;;;;;;5036029;28;20474;-69
2023/02/26 09:55:29;;;;;;;3.10;1.43;;;7.10;91.50;;;;;;5038006;28;20521;-68
2023/02/26 09:58:10;;;;;;;6.20;1.47;;;6.90;91.10;;;;;;5039638;28;20512;-69
2023/02/26 10:00:41;;;;;;;1.50;0.90;;;6.90;93.40;;;;;;5045789;28;20567;-68
2023/02/26 10:03:19;;;;;;;3.73;1.40;;;6.70;92.40;;;;;;5045227;28;20849;-68
2023/02/26 10:06:18;;;;;;;6.00;1.90;;;6.90;91.90;;;;;;5045838;28;20904;-68
2023/02/26 10:09:08;;;;;;;3.90;1.87;;;6.50;92.00;;;;;;5051169;28;20990;-73
2023/02/26 10:12:01;;;;;;;3.73;1.07;;;6.70;92.30;;;;;;5050459;28;20508;-72
2023/02/26 10:14:33;;;;;;;2.20;1.60;;;6.70;91.90;;;;;;5046161;28;20471;-70
2023/02/26 10:17:13;;;;;;;2.33;1.40;;;6.10;89.60;;;;;;5046008;28;20463;-72
2023/02/26 10:19:44;;;;;;;3.90;2.03;;;6.20;91.90;;;;;;5035489;28;20510;-72
2023/02/26 10:22:42;;;;;;;1.77;1.30;;;6.30;91.40;;;;;;5050787;28;20445;-72
2023/02/26 10:25:22;;;;;;;2.33;1.73;;;5.70;92.40;;;;;;5048856;28;20433;-73
2023/02/26 10:27:54;;;;;;;1.67;1.00;;;6.00;92.10;;;;;;5046262;28;20936;-72
2023/02/26 10:30:24;;;;;;;4.20;1.23;;;6.10;92.30;;;;;;5042701;28;20471;-73
2023/02/26 10:33:17;;;;;;;2.20;1.10;;;6.30;91.60;;;;;;5044332;28;20469;-70
2023/02/26 10:35:51;;;;;;;5.63;1.27;;;6.50;90.20;;;;;;5046564;28;20426;-70
2023/02/26 10:38:21;;;;;;;2.70;1.27;;;6.70;89.60;;;;;;5047207;28;20424;-70
2023/02/26 10:40:54;;;;;;;2.80;1.23;;;6.80;93.30;;;;;;5050290;28;21447;-70
2023/02/26 10:43:53;;;;;;;1.90;1.13;;;6.50;89.20;;;;;;5051936;28;20428;-70
2023/02/26 10:46:41;;;;;;;2.83;1.00;;;6.30;90.30;;;;;;5052152;28;20437;-70
2023/02/26 10:49:24;;;;;;;4.10;1.30;;;6.20;89.50;;;;;;5038108;28;20430;-69
2023/02/26 10:51:51;;;;;;;1.70;1.10;;;6.50;88.70;;;;;;5037269;28;20975;-68
2023/02/26 10:54:20;;;;;;;2.97;1.00;;;6.60;90.30;;;;;;5037972;28;20440;-69
2023/02/26 10:56:46;;;;;;;2.70;1.30;;;6.60;86.60;;;;;;5044000;28;20978;-69
2023/02/26 10:59:12;;;;;;;2.97;1.23;;;6.70;85.10;;;;;;5041163;28;20429;-69
2023/02/26 11:01:37;;;;;;;3.60;1.30;;;6.90;84.50;;;;;;5041751;28;20448;-69
2023/02/26 11:04:12;;;;;;;4.40;1.53;;;7.00;85.00;;;;;;5045913;28;20425;-69
2023/02/26 11:06:58;;;;;;;1.70;1.10;;;7.10;84.40;;;;;;5044517;28;20179;-69
2023/02/26 11:09:31;;;;;;;4.33;0.97;;;7.20;81.90;;;;;;5035387;28;20543;-69
2023/02/26 11:12:06;;;;;;;2.90;1.30;;;7.40;80.10;;;;;;5051015;28;20484;-69
2023/02/26 11:14:32;;;;;;;16.07;2.20;;;7.40;77.10;;;;;;5050851;28;20812;-68
2023/02/26 11:17:03;;;;;;;2.60;1.20;;;7.30;80.80;;;;;;5048401;28;20429;-69
2023/02/26 11:19:38;;;;;;;3.37;1.43;;;7.50;80.10;;;;;;5047002;28;20430;-70
2023/02/26 11:22:08;;;;;;;3.90;1.27;;;7.50;78.10;;;;;;5042439;28;20432;-70
2023/02/26 11:24:34;;;;;;;4.40;1.97;;;7.50;77.70;;;;;;5038825;28;20508;-70
2023/02/26 11:27:02;;;;;;;1.37;1.27;;;7.60;75.40;;;;;;5040894;28;20936;-69
2023/02/26 11:29:40;;;;;;;2.40;1.27;;;7.60;76.20;;;;;;5042723;28;20179;-68
2023/02/26 11:32:12;;;;;;;2.80;1.50;;;7.70;71.30;;;;;;5035391;28;20490;-69
2023/02/26 11:34:39;;;;;;;1.93;1.40;;;7.60;73.60;;;;;;5034356;28;20427;-68
2023/02/26 11:37:05;;;;;;;4.63;1.40;;;7.80;74.20;;;;;;5033808;28;20496;-68
2023/02/26 11:39:35;;;;;;;3.40;1.50;;;7.90;77.10;;;;;;5032308;28;20430;-69
2023/02/26 11:42:02;;;;;;;1.67;1.13;;;8.00;74.60;;;;;;5046621;28;20425;-68
2023/02/26 11:44:38;;;;;;;8.13;1.70;;;8.10;73.20;;;;;;5048286;28;20429;-68
2023/02/26 11:47:12;;;;;;;2.83;1.27;;;8.10;70.30;;;;;;5039481;28;20446;-70
2023/02/26 11:49:50;;;;;;;1.87;1.50;;;8.20;71.30;;;;;;5042229;28;20437;-69
2023/02/26 11:52:27;;;;;;;2.47;1.20;;;8.30;71.20;;;;;;5039750;28;20565;-69
2023/02/26 11:54:58;;;;;;;2.13;1.60;;;8.20;70.30;;;;;;5042648;28;20438;-68
2023/02/26 11:57:27;;;;;;;1.83;0.97;;;8.10;67.90;;;;;;5044915;28;20448;-69
2023/02/26 11:59:56;;;;;;;1.63;1.17;;;8.30;69.00;;;;;;5046946;28;20517;-69
2023/02/26 12:02:24;;;;;;;1.97;1.00;;;8.40;66.30;;;;;;5042812;28;20446;-69
2023/02/26 12:04:59;;;;;;;3.17;1.70;;;8.50;63.70;;;;;;5033385;28;20449;-68
2023/02/26 12:07:25;;;;;;;3.67;1.33;;;8.50;59.80;;;;;;5033159;28;20786;-70
2023/02/26 12:09:50;;;;;;;1.83;1.13;;;8.50;62.70;;;;;;5033326;28;20440;-69
2023/02/26 12:13:06;;;;;;;2.80;1.30;;;8.70;64.00;;;;;;5034968;28;20697;-67
2023/02/26 12:16:09;;;;;;;3.53;1.83;;;8.80;64.20;;;;;;4988312;28;20589;-66
2023/02/26 12:18:53;;;;;;;2.40;1.23;;;9.00;61.30;;;;;;4983396;28;20490;-69
2023/02/26 12:21:55;;;;;;;2.90;1.40;;;9.30;64.70;;;;;;5032248;28;20441;-67
2023/02/26 12:24:51;;;;;;;10.90;1.63;;;9.60;62.90;;;;;;5042647;28;20522;-71
2023/02/26 12:28:14;;;;;;;1.30;0.90;;;9.80;71.50;;;;;;5048155;28;20436;-67
2023/02/26 12:30:53;;;;;;;1.93;1.20;;;10.00;55.60;;;;;;4990494;28;20975;-72
2023/02/26 12:33:27;;;;;;;1.10;0.70;;;9.70;54.70;;;;;;4978434;28;20440;-72
2023/02/26 12:36:20;;;;;;;4.60;1.23;;;9.70;53.50;;;;;;5020351;28;20441;-72
2023/02/26 12:39:13;;;;;;;3.17;0.90;;;9.80;53.20;;;;;;5049270;28;20964;-72
2023/02/26 12:41:59;;;;;;;1.10;0.80;;;9.60;53.30;;;;;;5040108;28;21010;-72
2023/02/26 12:44:52;;;;;;;2.50;1.40;;;9.50;51.80;;;;;;5047575;28;20516;-72
2023/02/26 12:47:33;;;;;;;1.33;0.80;;;9.40;51.20;;;;;;5043741;28;20445;-72
2023/02/26 12:50:24;;;;;;;1.77;1.10;;;9.20;51.70;;;;;;5046265;28;20579;-72
2023/02/26 12:53:18;;;;;;;3.37;1.23;;;9.20;51.00;;;;;;5047905;28;20473;-72
2023/02/26 12:56:03;;;;;;;2.20;0.87;;;8.90;51.90;;;;;;5039211;28;20513;-72
2023/02/26 12:59:07;;;;;;;5.30;1.10;;;8.60;54.10;;;;;;5052162;28;20490;-71
2023/02/26 13:01:53;;;;;;;1.90;1.70;;;8.40;54.20;;;;;;5034448;28;20446;-71
2023/02/26 13:04:46;;;;;;;1.77;1.13;;;8.50;55.70;;;;;;5035193;28;20462;-71
2023/02/26 13:07:21;;;;;;;1.33;0.90;;;8.70;54.90;;;;;;5047022;28;20457;-69
2023/02/26 13:10:02;;;;;;;2.20;1.13;;;8.80;53.40;;;;;;5048725;28;20464;-69
2023/02/26 13:12:36;;;;;;;3.30;1.10;;;9.00;54.60;;;;;;5051707;28;20837;-70
2023/02/26 13:15:20;;;;;;;1.80;1.33;;;9.30;53.90;;;;;;5049656;28;20429;-70
2023/02/26 13:18:05;;;;;;;1.10;1.00;;;9.40;55.40;;;;;;5051927;28;20445;-70
2023/02/26 13:20:33;;;;;;;1.23;0.90;;;9.60;53.50;;;;;;5049804;28;20948;-70
2023/02/26 13:23:03;;;;;;;2.80;0.90;;;9.60;51.10;;;;;;5050567;28;20435;-70
2023/02/26 13:25:49;;;;;;;1.53;1.30;;;9.60;51.70;;;;;;5047300;28;20928;-69
2023/02/26 13:28:49;;;;;;;3.20;1.33;;;9.70;52.10;;;;;;5045175;28;20434;-70
2023/02/26 13:31:37;;;;;;;1.60;1.03;;;9.70;52.30;;;;;;5045401;28;20526;-69
2023/02/26 13:34:31;;;;;;;1.77;1.00;;;9.90;54.00;;;;;;5048493;28;20435;-69
2023/02/26 13:36:57;;;;;;;2.63;0.93;;;10.00;52.80;;;;;;5036836;28;20434;-70
2023/02/26 13:39:51;;;;;;;3.23;0.97;;;10.10;52.40;;;;;;5050865;28;20436;-70
2023/02/26 13:42:26;;;;;;;3.40;1.10;;;10.20;52.20;;;;;;5052529;28;20838;-70
2023/02/26 13:44:55;;;;;;;1.40;1.00;;;10.20;53.10;;;;;;5051785;28;20521;-70
2023/02/26 13:47:40;;;;;;;1.47;0.87;;;10.30;51.40;;;;;;5049886;28;20488;-70
2023/02/26 13:50:16;;;;;;;1.43;1.30;;;10.20;50.20;;;;;;5038604;28;20453;-69
2023/02/26 13:52:55;;;;;;;3.00;1.50;;;10.20;51.30;;;;;;5036525;28;20485;-70
2023/02/26 13:55:44;;;;;;;1.70;1.10;;;10.00;51.00;;;;;;5050470;28;20835;-69
2023/02/26 13:58:33;;;;;;;2.33;1.17;;;10.00;50.50;;;;;;5052554;28;20781;-69
2023/02/26 14:01:16;;;;;;;2.00;1.50;;;10.00;51.10;;;;;;5036678;28;20437;-69
2023/02/26 14:04:03;;;;;;;2.13;1.07;;;10.10;52.50;;;;;;5038353;28;20457;-69
2023/02/26 14:06:43;;;;;;;1.97;1.00;;;10.20;51.30;;;;;;5040698;28;20421;-70
2023/02/26 14:09:21;;;;;;;2.50;1.10;;;10.20;52.50;;;;;;5044318;28;20437;-69
2023/02/26 14:12:17;;;;;;;5.60;1.13;;;10.20;50.40;;;;;;5043579;28;20891;-69
2023/02/26 14:14:58;;;;;;;3.87;1.60;;;10.00;50.10;;;;;;5039493;28;20513;-69
2023/02/26 14:17:38;;;;;;;2.90;1.10;;;9.80;50.60;;;;;;5037983;28;20446;-69
2023/02/26 14:20:20;;;;;;;2.23;1.20;;;9.60;50.90;;;;;;5035739;28;20944;-69
2023/02/26 14:23:09;;;;;;;1.23;0.80;;;9.70;50.10;;;;;;5052101;28;20425;-69
2023/02/26 14:25:47;;;;;;;2.87;1.33;;;9.50;51.90;;;;;;5042697;28;20433;-70
2023/02/26 14:28:25;;;;;;;1.90;1.70;;;9.30;51.40;;;;;;5050056;28;20436;-70
2023/02/26 14:31:05;;;;;;;1.90;1.40;;;9.40;52.10;;;;;;5047594;28;20461;-69
2023/02/26 14:33:43;;;;;;;2.17;1.23;;;9.10;52.10;;;;;;5039760;28;20812;-72
2023/02/26 14:36:27;;;;;;;3.20;1.10;;;9.10;52.80;;;;;;5043527;28;20430;-69
2023/02/26 14:38:54;;;;;;;3.47;1.40;;;9.30;53.80;;;;;;5043509;28;20433;-70
2023/02/26 14:41:35;;;;;;;3.93;1.67;;;9.00;53.20;;;;;;5045347;28;20488;-71
2023/02/26 14:44:05;;;;;;;1.20;1.00;;;8.70;53.80;;;;;;5048096;28;20460;-72
2023/02/26 14:46:31;;;;;;;8.17;1.90;;;8.60;54.20;;;;;;5048204;28;20430;-71
2023/02/26 14:48:57;;;;;;;4.40;1.53;;;8.50;54.10;;;;;;5050792;28;20426;-72
2023/02/26 14:51:55;;;;;;;2.23;1.50;;;8.40;54.30;;;;;;5051817;28;20457;-71
2023/02/26 14:54:57;;;;;;;2.00;1.23;;;8.40;54.90;;;;;;5048102;28;20610;-71
2023/02/26 14:57:24;;;;;;;2.33;1.37;;;8.50;55.40;;;;;;5036585;28;20435;-71
2023/02/26 15:00:12;;;;;;;1.20;0.93;;;8.60;55.30;;;;;;5040376;28;20963;-69
2023/02/26 15:03:14;;;;;;;2.50;1.57;;;8.70;54.10;;;;;;5040390;28;20437;-70
2023/02/26 15:06:09;;;;;;;2.30;1.47;;;8.60;53.00;;;;;;5041312;28;20433;-69
2023/02/26 15:08:37;;;;;;;3.10;1.83;;;8.50;53.30;;;;;;5037070;28;21163;-70
2023/02/26 15:11:16;;;;;;;2.40;1.77;;;8.30;53.60;;;;;;5035074;28;20516;-70
2023/02/26 15:14:08;;;;;;;1.70;1.60;;;8.20;54.50;;;;;;5033886;28;20851;-70
2023/02/26 15:16:52;;;;;;;3.10;1.57;;;8.00;54.40;;;;;;5032734;28;20934;-71
2023/02/26 15:19:39;;;;;;;4.37;1.77;;;7.80;54.20;;;;;;5043306;28;20445;-72
2023/02/26 15:22:45;;;;;;;3.23;1.40;;;7.70;55.20;;;;;;5047826;28;20794;-71